Time;durP1;ratioP1;P1;durP2;ratioP2;P2;SDS_P1;SDS_P2;PMS_P1;PMS_P2;Temp;Humidity;BMP_temperature;BMP_pressure;BME280_temperature;BME280_humidity;BME280_pressure;Samples;Min_cycle;Max_cycle;Signal;HPM_P1;HPM_P2
2023/03/21 00:00:55;;;;;;;;;;;10.40;99.90;;;;;;5023406;28;19952;-63
2023/03/21 00:03:20;;;;;;;;;;;10.40;99.90;;;;;;5026481;28;20007;-62
2023/03/21 00:05:48;;;;;;;;;;;10.40;99.90;;;;;;5028068;28;20044;-62
2023/03/21 00:08:14;;;;;;;;;;;10.40;99.90;;;;;;5023325;28;20027;-59
2023/03/21 00:10:40;;;;;;;;;;;10.40;99.90;;;;;;5026217;28;20020;-63
2023/03/21 00:13:05;;;;;;;;;;;10.40;99.90;;;;;;5025517;28;20019;-62
2023/03/21 00:15:31;;;;;;;;;;;10.40;99.90;;;;;;5027663;28;19913;-63
2023/03/21 00:18:03;;;;;;;;;;;10.40;99.90;;;;;;5026911;28;19913;-62
2023/03/21 00:20:29;;;;;;;;;;;10.40;99.90;;;;;;5027468;28;19913;-63
2023/03/21 00:22:55;;;;;;;;;;;10.40;99.90;;;;;;5028468;28;19920;-63
2023/03/21 00:25:20;;;;;;;;;;;10.40;99.90;;;;;;5024804;28;19921;-63
2023/03/21 00:27:46;;;;;;;;;;;10.40;99.90;;;;;;5027795;28;19921;-62
2023/03/21 00:30:11;;;;;;;;;;;10.40;99.90;;;;;;5026118;28;19921;-60
2023/03/21 00:32:37;;;;;;;;;;;10.40;99.90;;;;;;5028978;28;19913;-63
2023/03/21 00:35:02;;;;;;;;;;;10.40;99.90;;;;;;5025908;28;20297;-59
2023/03/21 00:37:28;;;;;;;;;;;10.40;99.90;;;;;;5028887;28;20551;-62
2023/03/21 00:39:53;;;;;;;;;;;10.40;99.90;;;;;;5027664;28;20394;-62
2023/03/21 00:42:19;;;;;;;;;;;10.40;99.90;;;;;;5023505;28;20333;-62
2023/03/21 00:44:44;;;;;;;;;;;10.30;99.90;;;;;;5028198;28;19913;-63
2023/03/21 00:47:11;;;;;;;;;;;10.30;99.90;;;;;;5025810;28;19917;-61
2023/03/21 00:49:37;;;;;;;;;;;10.30;99.90;;;;;;5026554;28;20363;-62
2023/03/21 00:52:05;;;;;;;;;;;10.30;99.90;;;;;;5023332;28;19967;-60
2023/03/21 00:54:31;;;;;;;;;;;10.30;99.90;;;;;;5027045;28;19944;-62
2023/03/21 00:56:57;;;;;;;;;;;10.30;99.90;;;;;;5026073;28;19917;-59
2023/03/21 00:59:22;;;;;;;;;;;10.30;99.90;;;;;;5027543;28;19917;-62
2023/03/21 01:01:48;;;;;;;;;;;10.20;99.90;;;;;;5027216;28;20386;-63
2023/03/21 01:04:15;;;;;;;;;;;10.20;99.90;;;;;;5024410;28;20012;-63
2023/03/21 01:06:41;;;;;;;;;;;10.20;99.90;;;;;;5027002;28;19913;-63
2023/03/21 01:09:10;;;;;;;;;;;10.20;99.90;;;;;;5022661;28;19924;-62
2023/03/21 01:11:35;;;;;;;;;;;10.20;99.90;;;;;;5027337;28;20243;-61
2023/03/21 01:14:01;;;;;;;;;;;10.20;99.90;;;;;;5031970;28;19920;-61
2023/03/21 01:16:26;;;;;;;;;;;10.20;99.90;;;;;;5027503;28;19956;-62
2023/03/21 01:18:52;;;;;;;;;;;10.20;99.90;;;;;;5031432;28;19913;-62
2023/03/21 01:21:17;;;;;;;;;;;10.20;99.90;;;;;;5031644;28;19913;-62
2023/03/21 01:23:43;;;;;;;;;;;10.20;99.90;;;;;;5031916;28;19921;-62
2023/03/21 01:26:09;;;;;;;;;;;10.20;99.90;;;;;;5030001;28;19920;-61
2023/03/21 01:28:35;;;;;;;;;;;10.20;99.90;;;;;;5031775;28;19917;-59
2023/03/21 01:31:01;;;;;;;;;;;10.20;99.90;;;;;;5033396;28;20436;-62
2023/03/21 01:33:27;;;;;;;;;;;10.20;99.90;;;;;;5030130;28;19913;-61
2023/03/21 01:35:53;;;;;;;;;;;10.30;99.90;;;;;;5030137;28;19914;-60
2023/03/21 01:38:19;;;;;;;;;;;10.30;99.90;;;;;;5030619;28;19924;-62
2023/03/21 01:40:46;;;;;;;;;;;10.20;99.90;;;;;;5031026;28;19924;-62
2023/03/21 01:43:19;;;;;;;;;;;10.20;99.90;;;;;;5029119;28;19920;-61
2023/03/21 01:46:06;;;;;;;;;;;10.20;99.90;;;;;;5030571;28;19913;-61
2023/03/21 01:48:32;;;;;;;;;;;10.20;99.90;;;;;;5031137;28;19917;-62
2023/03/21 01:50:58;;;;;;;;;;;10.20;99.90;;;;;;5027134;28;19920;-62
2023/03/21 01:53:28;;;;;;;;;;;10.20;99.90;;;;;;5029750;28;19996;-62
2023/03/21 01:56:01;;;;;;;;;;;10.20;99.90;;;;;;5032095;28;20240;-62
2023/03/21 01:58:28;;;;;;;;;;;10.20;99.90;;;;;;5030562;28;19913;-62
2023/03/21 02:00:55;;;;;;;;;;;10.30;99.90;;;;;;5029751;28;19924;-62
2023/03/21 02:03:21;;;;;;;;;;;10.30;99.90;;;;;;5041463;28;20132;-62
2023/03/21 02:05:53;;;;;;;;;;;10.30;99.90;;;;;;5030486;28;20205;-61
2023/03/21 02:08:19;;;;;;;;;;;10.30;99.90;;;;;;5028441;28;20323;-62
2023/03/21 02:10:46;;;;;;;;;;;10.30;99.90;;;;;;5029357;28;19913;-62
2023/03/21 02:13:12;;;;;;;;;;;10.20;99.90;;;;;;5031265;28;20032;-61
2023/03/21 02:15:40;;;;;;;;;;;10.30;99.90;;;;;;5029228;28;20414;-62
2023/03/21 02:18:05;;;;;;;;;;;10.30;99.90;;;;;;5029334;28;19936;-62
2023/03/21 02:20:44;;;;;;;;;;;10.30;99.90;;;;;;5025900;28;19913;-61
2023/03/21 02:23:10;;;;;;;;;;;10.20;99.90;;;;;;5027157;28;19968;-60
2023/03/21 02:25:47;;;;;;;;;;;10.20;99.90;;;;;;5027284;28;20000;-62
2023/03/21 02:28:31;;;;;;;;;;;10.20;99.90;;;;;;5030647;28;19925;-62
2023/03/21 02:31:16;;;;;;;;;;;10.20;99.90;;;;;;5027082;28;20333;-62
2023/03/21 02:34:00;;;;;;;;;;;10.10;99.90;;;;;;5027666;28;20317;-62
2023/03/21 02:36:45;;;;;;;;;;;10.10;99.90;;;;;;5027263;28;20374;-62
2023/03/21 02:39:12;;;;;;;;;;;10.10;99.90;;;;;;5025685;28;19959;-62
2023/03/21 02:41:41;;;;;;;;;;;10.10;99.90;;;;;;5025559;28;19925;-61
2023/03/21 02:44:24;;;;;;;;;;;10.10;99.90;;;;;;5027366;28;19917;-62
2023/03/21 02:47:11;;;;;;;;;;;10.00;99.90;;;;;;5024731;28;19921;-62
2023/03/21 02:49:42;;;;;;;;;;;10.10;99.90;;;;;;5027982;28;20353;-62
2023/03/21 02:52:11;;;;;;;;;;;10.00;99.90;;;;;;5027798;28;19921;-62
2023/03/21 02:54:37;;;;;;;;;;;10.00;99.90;;;;;;5030739;28;20427;-62
2023/03/21 02:57:03;;;;;;;;;;;10.00;99.90;;;;;;5028769;28;19981;-61
2023/03/21 02:59:29;;;;;;;;;;;10.00;99.90;;;;;;5029315;28;19983;-61
2023/03/21 03:01:55;;;;;;;;;;;10.10;99.90;;;;;;5028558;28;19917;-61
2023/03/21 03:04:22;;;;;;;;;;;10.10;99.90;;;;;;5029192;28;20072;-62
2023/03/21 03:07:06;;;;;;;;;;;10.10;99.90;;;;;;5027201;28;19980;-62
2023/03/21 03:09:48;;;;;;;;;;;10.10;99.90;;;;;;5026150;28;19959;-62
2023/03/21 03:12:26;;;;;;;;;;;10.00;99.90;;;;;;5028782;28;19924;-60
2023/03/21 03:14:58;;;;;;;;;;;10.00;99.90;;;;;;5026276;28;20311;-62
2023/03/21 03:17:30;;;;;;;;;;;10.00;99.90;;;;;;5028735;28;19924;-61
2023/03/21 03:20:14;;;;;;;;;;;10.00;99.90;;;;;;5024722;28;19913;-61
2023/03/21 03:22:45;;;;;;;;;;;10.00;99.90;;;;;;5026638;28;19929;-61
2023/03/21 03:25:13;;;;;;;;;;;10.00;99.90;;;;;;5028513;28;19924;-62
2023/03/21 03:27:41;;;;;;;;;;;10.00;99.90;;;;;;5026849;28;19917;-62
2023/03/21 03:30:08;;;;;;;;;;;10.00;99.90;;;;;;5028423;28;19912;-62
2023/03/21 03:32:35;;;;;;;;;;;10.00;99.90;;;;;;5027541;28;19921;-62
2023/03/21 03:35:03;;;;;;;;;;;10.00;99.90;;;;;;5028135;28;19920;-61
2023/03/21 03:37:31;;;;;;;;;;;9.90;99.90;;;;;;5026169;28;19927;-61
2023/03/21 03:40:17;;;;;;;;;;;9.90;99.90;;;;;;5029702;28;20582;-62
2023/03/21 03:42:43;;;;;;;;;;;9.80;99.90;;;;;;5022530;28;19920;-62
2023/03/21 03:45:09;;;;;;;;;;;9.70;99.90;;;;;;5026360;28;19919;-60
2023/03/21 03:47:35;;;;;;;;;;;9.80;99.90;;;;;;5025908;28;20379;-62
2023/03/21 03:50:11;;;;;;;;;;;9.70;99.90;;;;;;5028230;28;19913;-62
2023/03/21 03:52:38;;;;;;;;;;;9.70;99.90;;;;;;5027891;28;20282;-62
2023/03/21 03:55:03;;;;;;;;;;;9.60;99.90;;;;;;5026847;28;19917;-62
2023/03/21 03:57:29;;;;;;;;;;;9.60;99.90;;;;;;5027813;28;19928;-61
2023/03/21 03:59:54;;;;;;;;;;;9.60;99.90;;;;;;5025663;28;19963;-61
2023/03/21 04:02:20;;;;;;;;;;;9.60;99.90;;;;;;5027193;28;19936;-62
2023/03/21 04:04:46;;;;;;;;;;;9.60;99.90;;;;;;5027950;28;20070;-61
2023/03/21 04:07:12;;;;;;;;;;;9.60;99.90;;;;;;5024143;28;20397;-62
2023/03/21 04:09:37;;;;;;;;;;;9.60;99.90;;;;;;5026555;28;20450;-62
2023/03/21 04:12:03;;;;;;;;;;;9.60;99.90;;;;;;5026397;28;19913;-62
2023/03/21 04:14:28;;;;;;;;;;;9.60;99.90;;;;;;5025978;28;19924;-62
2023/03/21 04:16:54;;;;;;;;;;;9.60;99.90;;;;;;5026544;28;20010;-62
2023/03/21 04:19:20;;;;;;;;;;;9.70;99.90;;;;;;5027975;28;19921;-61
2023/03/21 04:21:46;;;;;;;;;;;9.70;99.90;;;;;;5027395;28;19921;-62
2023/03/21 04:24:12;;;;;;;;;;;9.70;99.90;;;;;;5028143;28;19917;-61
2023/03/21 04:26:38;;;;;;;;;;;9.80;99.90;;;;;;5028350;28;19914;-61
2023/03/21 04:29:04;;;;;;;;;;;9.80;99.90;;;;;;5030142;28;19917;-61
2023/03/21 04:31:30;;;;;;;;;;;9.80;99.90;;;;;;5028097;28;19962;-62
2023/03/21 04:33:59;;;;;;;;;;;9.80;99.90;;;;;;5030132;28;19913;-62
2023/03/21 04:36:29;;;;;;;;;;;9.80;99.90;;;;;;5028519;28;19913;-62
2023/03/21 04:38:59;;;;;;;;;;;9.80;99.90;;;;;;5029221;28;20024;-62
2023/03/21 04:41:25;;;;;;;;;;;9.80;99.90;;;;;;5026723;28;19964;-62
2023/03/21 04:43:51;;;;;;;;;;;9.80;99.90;;;;;;5029964;28;19913;-61
2023/03/21 04:46:16;;;;;;;;;;;9.80;99.90;;;;;;5027604;28;19913;-62
2023/03/21 04:48:42;;;;;;;;;;;9.80;99.90;;;;;;5033854;28;20383;-62
2023/03/21 04:51:07;;;;;;;;;;;9.80;99.90;;;;;;5037023;28;19924;-61
2023/03/21 04:53:32;;;;;;;;;;;9.80;99.90;;;;;;5033212;28;20429;-62
2023/03/21 04:55:59;;;;;;;;;;;9.80;99.90;;;;;;5030265;28;19917;-62
2023/03/21 04:58:25;;;;;;;;;;;9.90;99.90;;;;;;5030338;28;19936;-62
2023/03/21 05:00:51;;;;;;;;;;;9.80;99.90;;;;;;5029031;28;20391;-62
2023/03/21 05:03:18;;;;;;;;;;;9.70;99.90;;;;;;5032779;28;19913;-61
2023/03/21 05:05:44;;;;;;;;;;;9.70;99.90;;;;;;5029953;28;19917;-61
2023/03/21 05:08:11;;;;;;;;;;;9.70;99.90;;;;;;5032562;28;20009;-62
2023/03/21 05:10:36;;;;;;;;;;;9.70;99.90;;;;;;5029529;28;19917;-62
2023/03/21 05:13:02;;;;;;;;;;;9.80;99.90;;;;;;5031273;28;19920;-62
2023/03/21 05:15:27;;;;;;;;;;;9.90;99.90;;;;;;5026731;28;20012;-62
2023/03/21 05:17:53;;;;;;;;;;;9.90;99.90;;;;;;5031797;28;19982;-62
2023/03/21 05:20:18;;;;;;;;;;;9.80;99.90;;;;;;5030557;28;19919;-60
2023/03/21 05:22:45;;;;;;;;;;;9.80;99.90;;;;;;5031865;28;19917;-61
2023/03/21 05:25:11;;;;;;;;;;;9.90;99.90;;;;;;5028381;28;19959;-61
2023/03/21 05:27:36;;;;;;;;;;;9.90;99.90;;;;;;5029290;28;19917;-62
2023/03/21 05:30:07;;;;;;;;;;;10.00;99.90;;;;;;5028283;28;19936;-62
2023/03/21 05:32:32;;;;;;;;;;;9.90;99.90;;;;;;5030656;28;19921;-62
2023/03/21 05:34:58;;;;;;;;;;;10.00;99.90;;;;;;5032319;28;19917;-63
2023/03/21 05:37:23;;;;;;;;;;;10.00;99.90;;;;;;5030806;28;19956;-63
2023/03/21 05:39:49;;;;;;;;;;;10.00;99.90;;;;;;5026470;28;20008;-63
2023/03/21 05:42:15;;;;;;;;;;;10.10;99.90;;;;;;5030559;28;20322;-62
2023/03/21 05:44:40;;;;;;;;;;;10.00;99.90;;;;;;5028878;28;19948;-63
2023/03/21 05:47:06;;;;;;;;;;;10.00;99.90;;;;;;5028598;28;19913;-62
2023/03/21 05:49:31;;;;;;;;;;;10.00;99.90;;;;;;5024809;28;19917;-63
2023/03/21 05:51:57;;;;;;;;;;;10.10;99.90;;;;;;5029216;28;19917;-63
2023/03/21 05:54:23;;;;;;;;;;;10.10;99.90;;;;;;5031914;28;19956;-62
2023/03/21 05:56:48;;;;;;;;;;;10.10;99.90;;;;;;5033207;28;19913;-62
2023/03/21 05:59:15;;;;;;;;;;;10.10;99.90;;;;;;5028803;28;19960;-63
2023/03/21 06:01:41;;;;;;;;;;;10.10;99.90;;;;;;5028540;28;19917;-56
2023/03/21 06:04:06;;;;;;;;;;;10.20;99.90;;;;;;5028878;28;19952;-54
2023/03/21 06:06:32;;;;;;;;;;;10.20;99.90;;;;;;5028585;28;19917;-56
2023/03/21 06:08:57;;;;;;;;;;;10.20;99.90;;;;;;5031253;28;19921;-59
2023/03/21 06:11:24;;;;;;;;;;;10.20;99.90;;;;;;5029347;28;19928;-54
2023/03/21 06:13:50;;;;;;;;;;;10.30;99.90;;;;;;5028600;28;19917;-57
2023/03/21 06:16:15;;;;;;;;;;;10.20;99.90;;;;;;5028648;28;19913;-58
2023/03/21 06:18:41;;;;;;;;;;;10.20;99.90;;;;;;5032118;28;19913;-55
2023/03/21 06:21:06;;;;;;;;;;;10.20;99.90;;;;;;5026639;28;19913;-56
2023/03/21 06:23:32;;;;;;;;;;;10.30;99.90;;;;;;5027351;28;20231;-57
2023/03/21 06:25:57;;;;;;;;;;;10.20;99.90;;;;;;5025635;28;19914;-55
2023/03/21 06:28:23;;;;;;;;;;;10.30;99.90;;;;;;5024446;28;19988;-55
2023/03/21 06:30:48;;;;;;;;;;;10.30;99.90;;;;;;5018396;28;19921;-58
2023/03/21 06:33:14;;;;;;;;;;;10.30;99.90;;;;;;5023131;28;19917;-55
2023/03/21 06:35:39;;;;;;;;;;;10.30;99.90;;;;;;5027038;28;19928;-54
2023/03/21 06:38:05;;;;;;;;;;;10.30;99.90;;;;;;5028301;28;20662;-55
2023/03/21 06:40:31;;;;;;;;;;;10.30;99.90;;;;;;5026658;28;19917;-55
2023/03/21 06:42:56;;;;;;;;;;;10.40;99.90;;;;;;5026655;28;19928;-56
2023/03/21 06:45:24;;;;;;;;;;;10.40;99.90;;;;;;5027378;28;19924;-53
2023/03/21 06:47:49;;;;;;;;;;;10.40;99.90;;;;;;5025709;28;20003;-56
2023/03/21 06:50:15;;;;;;;;;;;10.40;99.90;;;;;;5023788;28;19968;-56
2023/03/21 06:52:41;;;;;;;;;;;10.40;99.90;;;;;;5024928;28;19917;-55
2023/03/21 06:55:06;;;;;;;;;;;10.40;99.90;;;;;;5028668;28;19917;-53
2023/03/21 06:57:32;;;;;;;;;;;10.40;99.90;;;;;;5029023;28;20005;-57
2023/03/21 06:59:57;;;;;;;;;;;10.50;99.90;;;;;;5022843;28;19923;-54
2023/03/21 07:02:23;;;;;;;;;;;10.50;99.90;;;;;;5030184;28;20342;-54
2023/03/21 07:04:48;;;;;;;;;;;10.40;99.90;;;;;;5026622;28;19914;-54
2023/03/21 07:07:14;;;;;;;;;;;10.40;99.90;;;;;;5027939;28;20334;-62
2023/03/21 07:09:40;;;;;;;;;;;10.50;99.90;;;;;;5027543;28;20004;-52
2023/03/21 07:12:05;;;;;;;;;;;10.50;99.90;;;;;;5028685;28;19932;-53
2023/03/21 07:14:33;;;;;;;;;;;10.50;99.90;;;;;;5029203;28;19947;-54
2023/03/21 07:16:59;;;;;;;;;;;10.40;99.90;;;;;;5030066;28;19913;-55
2023/03/21 07:19:25;;;;;;;;;;;10.40;99.90;;;;;;5029563;28;19987;-53
2023/03/21 07:21:51;;;;;;;;;;;10.40;99.90;;;;;;5024001;28;20559;-53
2023/03/21 07:24:16;;;;;;;;;;;10.30;99.90;;;;;;5024676;28;19921;-53
2023/03/21 07:26:42;;;;;;;;;;;10.30;99.90;;;;;;5021605;28;19913;-53
2023/03/21 07:29:07;;;;;;;;;;;10.20;99.90;;;;;;5023808;28;20283;-53
2023/03/21 07:31:34;;;;;;;;;;;10.20;99.90;;;;;;5022349;28;20790;-57
2023/03/21 07:34:00;;;;;;;;;;;10.20;99.90;;;;;;5025168;28;19917;-56
2023/03/21 07:36:25;;;;;;;;;;;10.20;99.90;;;;;;5028024;28;19975;-55
2023/03/21 07:38:51;;;;;;;;;;;10.10;99.90;;;;;;5030038;28;19920;-56
2023/03/21 07:41:16;;;;;;;;;;;10.10;99.90;;;;;;5028830;28;20293;-54
2023/03/21 07:43:41;;;;;;;;;;;10.10;99.90;;;;;;5027630;28;19913;-55
2023/03/21 07:46:07;;;;;;;;;;;10.10;99.90;;;;;;5035484;28;19913;-56
2023/03/21 07:48:32;;;;;;;;;;;10.10;99.90;;;;;;5029114;28;19913;-57
2023/03/21 07:50:58;;;;;;;;;;;10.10;99.90;;;;;;5025719;28;19913;-53
2023/03/21 07:53:23;;;;;;;;;;;10.20;99.90;;;;;;5026586;28;20131;-53
2023/03/21 07:55:50;;;;;;;;;;;10.20;99.90;;;;;;5029264;28;20024;-54
2023/03/21 07:58:15;;;;;;;;;;;10.20;99.90;;;;;;5028780;28;19968;-56
2023/03/21 08:00:41;;;;;;;;;;;10.20;99.90;;;;;;5030142;28;19913;-53
2023/03/21 08:03:06;;;;;;;;;;;10.30;99.90;;;;;;5029038;28;19992;-55
2023/03/21 08:05:33;;;;;;;;;;;10.30;99.90;;;;;;5027746;28;19913;-55
2023/03/21 08:07:59;;;;;;;;;;;10.30;99.90;;;;;;5027652;28;19924;-55
2023/03/21 08:10:25;;;;;;;;;;;10.20;99.90;;;;;;5026250;28;19921;-57
2023/03/21 08:12:50;;;;;;;;;;;10.20;99.90;;;;;;5025289;28;19952;-56
2023/03/21 08:15:16;;;;;;;;;;;10.20;99.90;;;;;;5028434;28;20294;-54
2023/03/21 08:17:44;;;;;;;;;;;10.20;99.90;;;;;;5030002;28;19916;-54
2023/03/21 08:20:11;;;;;;;;;;;10.20;99.90;;;;;;5027678;28;19913;-54
2023/03/21 08:22:37;;;;;;;;;;;10.20;99.90;;;;;;5027987;28;19948;-56
2023/03/21 08:25:04;;;;;;;;;;;10.10;99.90;;;;;;5028438;28;20014;-54
2023/03/21 08:27:30;;;;;;;;;;;10.20;99.90;;;;;;5029814;28;19956;-54
2023/03/21 08:29:56;;;;;;;;;;;10.20;99.90;;;;;;5028741;28;19957;-56
2023/03/21 08:32:28;;;;;;;;;;;10.10;99.90;;;;;;5029569;28;19917;-57
2023/03/21 08:35:04;;;;;;;;;;;10.00;99.90;;;;;;5023618;28;20296;-54
2023/03/21 08:37:29;;;;;;;;;;;10.10;99.90;;;;;;5028652;28;20347;-55
2023/03/21 08:39:55;;;;;;;;;;;10.20;99.90;;;;;;5027480;28;19975;-57
2023/03/21 08:42:22;;;;;;;;;;;10.10;99.90;;;;;;5029356;28;19913;-56
2023/03/21 08:44:48;;;;;;;;;;;10.10;99.90;;;;;;5025289;28;19913;-55
2023/03/21 08:47:13;;;;;;;;;;;10.10;99.90;;;;;;5026933;28;20000;-57
2023/03/21 08:49:40;;;;;;;;;;;10.10;99.90;;;;;;5028572;28;20016;-56
2023/03/21 08:52:05;;;;;;;;;;;10.10;99.90;;;;;;5027127;28;20609;-56
2023/03/21 08:54:31;;;;;;;;;;;10.20;99.90;;;;;;5026174;28;19924;-55
2023/03/21 08:56:56;;;;;;;;;;;10.10;99.90;;;;;;5025757;28;19914;-55
2023/03/21 08:59:22;;;;;;;;;;;10.10;99.90;;;;;;5026683;28;19913;-57
2023/03/21 09:01:47;;;;;;;;;;;10.20;99.90;;;;;;5025689;28;19956;-57
2023/03/21 09:04:13;;;;;;;;;;;10.30;99.90;;;;;;5027881;28;19909;-57
2023/03/21 09:06:47;;;;;;;;;;;10.30;99.90;;;;;;5029818;28;20371;-57
2023/03/21 09:09:13;;;;;;;;;;;10.30;99.90;;;;;;5028600;28;19913;-54
2023/03/21 09:11:38;;;;;;;;;;;10.30;99.90;;;;;;5028887;28;19913;-56
2023/03/21 09:14:04;;;;;;;;;;;10.30;99.90;;;;;;5028016;28;20896;-57
2023/03/21 09:16:30;;;;;;;;;;;10.30;99.90;;;;;;5026354;28;20550;-57
2023/03/21 09:18:57;;;;;;;;;;;10.20;99.90;;;;;;5027922;28;19909;-56
2023/03/21 09:21:24;;;;;;;;;;;10.20;99.90;;;;;;5029020;28;19917;-57
2023/03/21 09:23:51;;;;;;;;;;;10.20;99.90;;;;;;5027915;28;19971;-57
2023/03/21 09:26:18;;;;;;;;;;;10.30;99.90;;;;;;5029357;28;19913;-54
2023/03/21 09:28:45;;;;;;;;;;;10.40;99.90;;;;;;5028645;28;19922;-55
2023/03/21 09:31:11;;;;;;;;;;;10.40;99.90;;;;;;5029443;28;19920;-58
2023/03/21 09:33:39;;;;;;;;;;;10.50;99.90;;;;;;5030044;28;20143;-57
2023/03/21 09:36:05;;;;;;;;;;;10.50;99.90;;;;;;5032403;28;20477;-55
2023/03/21 09:38:35;;;;;;;;;;;10.50;99.90;;;;;;5031833;28;20290;-57
2023/03/21 09:41:04;;;;;;;;;;;10.40;99.90;;;;;;5032577;28;19913;-57
2023/03/21 09:43:33;;;;;;;;;;;10.50;99.90;;;;;;5029418;28;20015;-54
2023/03/21 09:46:05;;;;;;;;;;;10.30;99.90;;;;;;5027627;28;19913;-56
2023/03/21 09:48:49;;;;;;;;;;;10.40;99.90;;;;;;5031214;28;20431;-57
2023/03/21 09:51:16;;;;;;;;;;;10.40;99.90;;;;;;5029376;28;19940;-56
2023/03/21 09:53:43;;;;;;;;;;;10.30;99.90;;;;;;5031317;28;20534;-56
2023/03/21 09:56:11;;;;;;;;;;;10.30;99.90;;;;;;5031194;28;19956;-56
2023/03/21 09:58:40;;;;;;;;;;;10.30;99.90;;;;;;5031434;28;19913;-57
2023/03/21 10:01:25;;;;;;;;;;;10.30;99.90;;;;;;5032801;28;19909;-55
2023/03/21 10:03:53;;;;;;;;;;;10.30;99.90;;;;;;5029314;28;19913;-54
2023/03/21 10:06:20;;;;;;;;;;;10.20;99.90;;;;;;5028856;28;19913;-54
2023/03/21 10:08:46;;;;;;;;;;;10.20;99.90;;;;;;5030533;28;19917;-56
2023/03/21 10:11:16;;;;;;;;;;;10.30;99.90;;;;;;5030155;28;19983;-58
2023/03/21 10:13:45;;;;;;;;;;;10.20;99.90;;;;;;5030046;28;19913;-55
2023/03/21 10:16:16;;;;;;;;;;;10.30;99.90;;;;;;5030061;28;19913;-54
2023/03/21 10:18:42;;;;;;;;;;;10.30;99.90;;;;;;5030818;28;20004;-56
2023/03/21 10:21:13;;;;;;;;;;;10.30;99.90;;;;;;5031047;28;19913;-53
2023/03/21 10:23:38;;;;;;;;;;;10.40;99.90;;;;;;5030498;28;20742;-56
2023/03/21 10:26:05;;;;;;;;;;;10.50;99.90;;;;;;5030197;28;19920;-55
2023/03/21 10:28:32;;;;;;;;;;;10.60;99.90;;;;;;5030554;28;19971;-54
2023/03/21 10:31:00;;;;;;;;;;;10.70;99.90;;;;;;5030058;28;19921;-57
2023/03/21 10:33:26;;;;;;;;;;;10.70;99.90;;;;;;5028768;28;19927;-56
2023/03/21 10:35:54;;;;;;;;;;;10.70;99.90;;;;;;5031587;28;19941;-56
2023/03/21 10:38:21;;;;;;;;;;;10.80;99.90;;;;;;5029549;28;20351;-57
2023/03/21 10:40:47;;;;;;;;;;;10.80;99.90;;;;;;5027269;28;19960;-56
2023/03/21 10:43:32;;;;;;;;;;;10.80;99.90;;;;;;5027860;28;19941;-58
2023/03/21 10:46:04;;;;;;;;;;;10.90;99.90;;;;;;5025415;28;20375;-57
2023/03/21 10:48:33;;;;;;;;;;;10.90;99.90;;;;;;5020804;28;19995;-56
2023/03/21 10:50:59;;;;;;;;;;;11.10;99.90;;;;;;5029219;28;19913;-58
2023/03/21 10:53:35;;;;;;;;;;;11.30;99.90;;;;;;5029238;28;19921;-54
2023/03/21 10:56:01;;;;;;;;;;;11.40;99.90;;;;;;5029640;28;19917;-57
2023/03/21 10:58:28;;;;;;;;;;;11.60;99.90;;;;;;5030062;28;20356;-57
2023/03/21 11:00:56;;;;;;;;;;;11.60;99.90;;;;;;5030818;28;19923;-57
2023/03/21 11:03:24;;;;;;;;;;;11.50;99.90;;;;;;5029878;28;20299;-57
2023/03/21 11:05:55;;;;;;;;;;;11.40;99.90;;;;;;5029491;28;19917;-56
2023/03/21 11:08:21;;;;;;;;;;;11.30;99.90;;;;;;5028547;28;19969;-57
2023/03/21 11:11:06;;;;;;;;;;;11.20;99.90;;;;;;5025723;28;19956;-53
2023/03/21 11:13:42;;;;;;;;;;;11.00;99.90;;;;;;5027030;28;19917;-56
2023/03/21 11:16:21;;;;;;;;;;;11.00;99.90;;;;;;5027618;28;19983;-55
2023/03/21 11:18:50;;;;;;;;;;;11.00;99.90;;;;;;5024318;28;19913;-54
2023/03/21 11:21:16;;;;;;;;;;;11.10;99.90;;;;;;5025735;28;19913;-56
2023/03/21 11:23:46;;;;;;;;;;;11.10;99.90;;;;;;5028128;28;19919;-56
2023/03/21 11:26:26;;;;;;;;;;;11.00;99.90;;;;;;5031023;28;19937;-56
2023/03/21 11:28:52;;;;;;;;;;;11.10;99.90;;;;;;5026130;28;20331;-55
2023/03/21 11:31:18;;;;;;;;;;;11.10;99.90;;;;;;5028806;28;19917;-55
2023/03/21 11:33:48;;;;;;;;;;;11.00;99.90;;;;;;5030231;28;20387;-57
2023/03/21 11:36:20;;;;;;;;;;;10.90;99.90;;;;;;5027742;28;19917;-58
2023/03/21 11:38:55;;;;;;;;;;;10.90;99.90;;;;;;5024512;28;20433;-57
2023/03/21 11:41:21;;;;;;;;;;;11.00;99.90;;;;;;5026221;28;19913;-56
2023/03/21 11:43:50;;;;;;;;;;;11.00;99.90;;;;;;5029328;28;19913;-57
2023/03/21 11:46:21;;;;;;;;;;;10.90;99.90;;;;;;5027182;28;19913;-56
2023/03/21 11:48:49;;;;;;;;;;;10.90;99.90;;;;;;5030215;28;19971;-57
2023/03/21 11:51:24;;;;;;;;;;;11.00;99.90;;;;;;5028077;28;20391;-57
2023/03/21 11:54:08;;;;;;;;;;;10.90;99.90;;;;;;5028915;28;19917;-57
2023/03/21 11:56:38;;;;;;;;;;;10.90;99.90;;;;;;5027939;28;20350;-56
2023/03/21 11:59:10;;;;;;;;;;;11.00;99.90;;;;;;5024265;28;19917;-56
2023/03/21 12:01:45;;;;;;;;;;;10.90;99.90;;;;;;5028126;28;19913;-58
2023/03/21 12:04:30;;;;;;;;;;;10.80;99.90;;;;;;5042567;28;19917;-53
2023/03/21 12:07:15;;;;;;;;;;;10.90;99.90;;;;;;5029687;28;20047;-56
2023/03/21 12:09:41;;;;;;;;;;;10.90;99.90;;;;;;5028840;28;20358;-54
2023/03/21 12:12:16;;;;;;;;;;;10.90;99.90;;;;;;5027788;28;20371;-56
2023/03/21 12:14:44;;;;;;;;;;;10.90;99.90;;;;;;5027623;28;19913;-54
2023/03/21 12:17:25;;;;;;;;;;;10.90;99.90;;;;;;5028677;28;20035;-55
2023/03/21 12:19:59;;;;;;;;;;;10.90;99.90;;;;;;5020873;28;19917;-55
2023/03/21 12:22:28;;;;;;;;;;;10.80;99.90;;;;;;5026169;28;19970;-56
2023/03/21 12:24:55;;;;;;;;;;;11.00;99.90;;;;;;5029031;28;19961;-56
2023/03/21 12:27:30;;;;;;;;;;;11.00;99.90;;;;;;5026867;28;19921;-55
2023/03/21 12:30:08;;;;;;;;;;;10.90;99.90;;;;;;5025072;28;19913;-56
2023/03/21 12:32:44;;;;;;;;;;;11.00;99.90;;;;;;5027131;28;19958;-56
2023/03/21 12:35:23;;;;;;;;;;;11.10;99.90;;;;;;5027751;28;19924;-54
2023/03/21 12:37:52;;;;;;;;;;;11.10;99.90;;;;;;5027023;28;19958;-56
2023/03/21 12:40:25;;;;;;;;;;;11.00;99.90;;;;;;5023640;28;19920;-55
2023/03/21 12:42:54;;;;;;;;;;;11.10;99.90;;;;;;5020983;28;19924;-57
2023/03/21 12:45:23;;;;;;;;;;;11.20;99.90;;;;;;5025182;28;19913;-57
2023/03/21 12:47:51;;;;;;;;;;;11.20;99.90;;;;;;5023627;28;19956;-57
2023/03/21 12:50:19;;;;;;;;;;;11.30;99.90;;;;;;5023610;28;20295;-57
2023/03/21 12:52:48;;;;;;;;;;;11.30;99.90;;;;;;5022101;28;19917;-56
2023/03/21 12:55:31;;;;;;;;;;;11.40;99.90;;;;;;5027457;28;20669;-57
2023/03/21 12:58:02;;;;;;;;;;;11.50;99.90;;;;;;5026965;28;20446;-54
2023/03/21 13:00:32;;;;;;;;;;;11.50;99.90;;;;;;5028239;28;19928;-54
2023/03/21 13:03:01;;;;;;;;;;;11.60;99.90;;;;;;5026401;28;19964;-56
2023/03/21 13:05:29;;;;;;;;;;;11.50;99.90;;;;;;5020691;28;20000;-54
2023/03/21 13:07:59;;;;;;;;;;;11.40;99.90;;;;;;5029201;28;20048;-55
2023/03/21 13:10:24;;;;;;;;;;;11.60;99.90;;;;;;5028706;28;19975;-56
2023/03/21 13:12:57;;;;;;;;;;;11.70;99.90;;;;;;5024893;28;19917;-55
2023/03/21 13:15:32;;;;;;;;;;;11.70;99.90;;;;;;5022890;28;19972;-56
2023/03/21 13:18:12;;;;;;;;;;;11.80;99.90;;;;;;5028520;28;20396;-57
2023/03/21 13:20:43;;;;;;;;;;;11.90;99.90;;;;;;5027976;28;19917;-53
2023/03/21 13:23:10;;;;;;;;;;;12.00;99.90;;;;;;5029528;28;19968;-54
2023/03/21 13:25:44;;;;;;;;;;;12.00;99.90;;;;;;5029014;28;20367;-54
2023/03/21 13:28:29;;;;;;;;;;;12.00;99.90;;;;;;5028447;28;20358;-57
2023/03/21 13:31:13;;;;;;;;;;;11.90;99.90;;;;;;5030905;28;19923;-57
2023/03/21 13:33:43;;;;;;;;;;;12.00;99.90;;;;;;5043010;28;19917;-55
2023/03/21 13:36:12;;;;;;;;;;;12.00;99.90;;;;;;5028735;28;19921;-56
2023/03/21 13:38:38;;;;;;;;;;;11.90;99.90;;;;;;5027280;28;19959;-57
2023/03/21 13:41:06;;;;;;;;;;;11.90;99.90;;;;;;5028121;28;19920;-56
2023/03/21 13:43:50;;;;;;;;;;;11.80;99.90;;;;;;5030706;28;19913;-55
2023/03/21 13:46:25;;;;;;;;;;;11.90;99.90;;;;;;5024147;28;20405;-55
2023/03/21 13:49:00;;;;;;;;;;;11.80;99.90;;;;;;5029986;28;19921;-55
2023/03/21 13:51:35;;;;;;;;;;;11.90;99.90;;;;;;5025080;28;20055;-55
2023/03/21 13:54:01;;;;;;;;;;;11.90;99.90;;;;;;5028342;28;19913;-56
2023/03/21 13:56:29;;;;;;;;;;;11.90;99.90;;;;;;5029047;28;20361;-58
2023/03/21 13:58:59;;;;;;;;;;;12.10;99.90;;;;;;5025583;28;19917;-56
2023/03/21 14:01:32;;;;;;;;;;;12.10;99.90;;;;;;5027158;28;19956;-56
2023/03/21 14:04:16;;;;;;;;;;;12.10;99.90;;;;;;5038259;28;19913;-54
2023/03/21 14:06:41;;;;;;;;;;;12.20;99.90;;;;;;5023077;28;19913;-56
2023/03/21 14:09:08;;;;;;;;;;;12.30;99.90;;;;;;5026753;28;19924;-55
2023/03/21 14:11:35;;;;;;;;;;;12.50;99.90;;;;;;5023240;28;19913;-56
2023/03/21 14:14:02;;;;;;;;;;;12.50;99.90;;;;;;5027058;28;20004;-53
2023/03/21 14:16:28;;;;;;;;;;;12.60;99.90;;;;;;5026291;28;20491;-55
2023/03/21 14:18:55;;;;;;;;;;;12.70;99.90;;;;;;5028292;28;19964;-56
2023/03/21 14:21:22;;;;;;;;;;;12.80;99.90;;;;;;5025572;28;19932;-55
2023/03/21 14:23:58;;;;;;;;;;;12.70;99.90;;;;;;5026090;28;20407;-56
2023/03/21 14:26:25;;;;;;;;;;;12.70;99.90;;;;;;5022911;28;19928;-57